Time;durP1;ratioP1;P1;durP2;ratioP2;P2;SDS_P1;SDS_P2;PMS_P1;PMS_P2;Temp;Humidity;BMP_temperature;BMP_pressure;BME280_temperature;BME280_humidity;BME280_pressure;Samples;Min_cycle;Max_cycle;Signal;HPM_P1;HPM_P2
2022/06/13 00:00:14;;;;;;;7.57;6.87;;;19.40;70.60;;;18.51;64.37;97897.31;4990626;28;20498;-73
2022/06/13 00:02:41;;;;;;;9.13;7.10;;;19.30;71.10;;;18.55;64.01;97897.56;4983469;28;20466;-72
2022/06/13 00:05:10;;;;;;;7.57;7.00;;;19.30;70.80;;;18.39;64.33;97886.59;4987598;28;20955;-74
2022/06/13 00:07:37;;;;;;;7.40;6.90;;;19.30;70.80;;;18.61;64.20;97895.66;4988227;28;20481;-72
2022/06/13 00:10:06;;;;;;;10.80;7.40;;;19.30;70.90;;;18.55;64.05;97897.56;4987708;28;20529;-75
2022/06/13 00:12:35;;;;;;;8.00;7.30;;;19.30;70.70;;;18.60;63.66;97905.81;5002524;28;20825;-75
2022/06/13 00:15:04;;;;;;;7.43;6.83;;;19.30;70.40;;;18.62;63.37;97898.16;4986712;28;20488;-76
2022/06/13 00:17:31;;;;;;;8.03;7.13;;;19.40;70.20;;;18.65;63.52;97903.06;4988476;28;20513;-76
2022/06/13 00:19:58;;;;;;;10.10;6.97;;;19.40;70.20;;;18.75;62.60;97895.97;4987988;28;20462;-74
2022/06/13 00:22:26;;;;;;;7.93;7.30;;;19.50;69.60;;;18.66;63.05;97901.97;4984243;28;20984;-75
2022/06/13 00:24:53;;;;;;;8.03;7.30;;;19.50;69.60;;;18.54;62.95;97898.66;4981984;28;20449;-74
2022/06/13 00:27:20;;;;;;;7.90;7.23;;;19.40;69.30;;;18.59;63.25;97895.13;4988164;28;20477;-72
2022/06/13 00:29:49;;;;;;;8.27;7.43;;;19.30;69.60;;;18.87;62.81;97882.81;4988216;28;20469;-74
2022/06/13 00:32:17;;;;;;;7.70;7.10;;;19.50;69.80;;;18.74;61.63;97878.72;4982527;28;20465;-73
2022/06/13 00:34:46;;;;;;;7.00;6.50;;;19.50;68.60;;;18.53;62.82;97894.28;5007893;28;20494;-72
2022/06/13 00:37:13;;;;;;;8.50;7.10;;;19.40;69.00;;;18.46;63.05;97904.69;4988296;28;20458;-73
2022/06/13 00:39:41;;;;;;;7.00;6.50;;;19.20;69.20;;;18.44;63.09;97901.41;4983981;28;20466;-73
2022/06/13 00:42:08;;;;;;;7.00;6.47;;;19.30;69.50;;;18.72;62.32;97907.44;4986742;28;20468;-74
2022/06/13 00:44:39;;;;;;;6.87;6.37;;;19.40;69.20;;;18.61;63.00;97912.09;4986040;28;20488;-74
2022/06/13 00:47:11;;;;;;;6.33;5.83;;;19.40;69.50;;;18.28;62.98;97868.53;4990832;28;20473;-74
2022/06/13 00:49:43;;;;;;;6.10;5.60;;;19.30;69.50;;;18.47;63.05;97903.59;4976728;28;20461;-73
2022/06/13 00:52:18;;;;;;;7.03;6.53;;;19.30;69.10;;;18.38;63.00;97903.28;4986920;28;20448;-73
2022/06/13 00:54:48;;;;;;;5.90;5.40;;;19.20;68.90;;;18.53;62.69;97916.16;5000659;28;20448;-71
2022/06/13 00:57:20;;;;;;;6.17;5.57;;;19.20;69.20;;;18.36;61.92;97905.47;4979336;28;20518;-72
2022/06/13 00:59:50;;;;;;;5.47;4.97;;;19.20;68.10;;;18.49;60.49;97893.19;4983972;28;20472;-77
2022/06/13 01:02:19;;;;;;;5.60;4.60;;;19.30;67.30;;;18.34;59.46;97907.63;4991302;28;20457;-71
2022/06/13 01:04:49;;;;;;;5.70;4.63;;;19.20;66.00;;;18.32;60.08;97910.66;4986720;28;20456;-73
2022/06/13 01:07:17;;;;;;;5.03;4.63;;;19.20;66.10;;;18.40;59.16;97917.50;5007678;28;20527;-71
2022/06/13 01:12:31;;;;;;;5.17;4.40;;;19.10;64.60;;;18.37;58.08;97918.06;4982241;28;20681;-72
2022/06/13 01:15:17;;;;;;;4.60;4.20;;;19.20;64.00;;;18.28;57.58;97925.97;4979411;28;20464;-73
2022/06/13 01:18:08;;;;;;;3.73;3.43;;;19.10;63.30;;;18.11;56.99;97948.84;4985698;28;20463;-71
2022/06/13 01:20:44;;;;;;;3.97;3.53;;;19.10;62.10;;;18.22;56.21;97971.59;4984170;28;20464;-76
2022/06/13 01:24:04;;;;;;;3.83;3.53;;;19.00;61.50;;;18.32;55.84;97989.97;4970166;28;20495;-74
2022/06/13 01:27:30;;;;;;;3.30;3.00;;;19.10;61.40;;;18.71;54.95;98004.31;4984302;28;20550;-73
2022/06/13 01:30:49;;;;;;;4.63;2.93;;;19.30;63.50;;;18.97;54.69;97992.34;4983189;28;20505;-75
2022/06/13 01:33:24;;;;;;;4.20;2.93;;;19.60;61.40;;;18.91;55.15;97989.84;4986948;28;20576;-74
2022/06/13 01:36:02;;;;;;;4.00;3.70;;;19.70;61.70;;;18.90;56.51;97986.31;4985759;28;20485;-75
2022/06/13 01:38:45;;;;;;;3.53;3.23;;;19.60;62.80;;;19.09;55.62;97978.41;4984519;28;20464;-73
2022/06/13 01:41:20;;;;;;;3.40;3.10;;;19.70;61.70;;;18.95;56.14;97972.63;4976409;28;20488;-75
2022/06/13 01:43:55;;;;;;;3.80;3.43;;;19.70;61.50;;;18.74;56.95;97958.09;4990369;28;20466;-73
2022/06/13 01:46:32;;;;;;;3.53;3.23;;;19.50;61.60;;;18.69;57.25;97952.59;5016384;28;20504;-73
2022/06/13 01:49:13;;;;;;;3.40;3.10;;;19.40;62.00;;;18.64;56.75;97958.03;4980251;28;20510;-72
2022/06/13 01:51:55;;;;;;;3.93;3.60;;;19.40;62.00;;;18.66;56.19;97972.31;4984823;28;20495;-75
2022/06/13 01:54:31;;;;;;;4.57;3.10;;;19.30;61.80;;;18.53;56.47;97968.16;4984352;28;20492;-72
2022/06/13 01:57:12;;;;;;;3.23;3.03;;;19.30;61.80;;;18.71;57.54;97960.53;5027819;28;20513;-72
2022/06/13 01:59:47;;;;;;;8.07;3.50;;;19.30;62.20;;;18.49;56.43;97943.22;4999818;28;20955;-73
2022/06/13 02:02:22;;;;;;;4.30;3.33;;;19.30;61.20;;;18.41;57.21;97966.47;4989700;28;20453;-73
2022/06/13 02:04:59;;;;;;;5.00;4.10;;;19.20;61.90;;;18.31;57.87;97960.97;4984569;28;20458;-74
2022/06/13 02:07:31;;;;;;;4.33;3.37;;;19.10;62.50;;;18.21;58.83;97963.66;5000674;28;20472;-74
2022/06/13 02:10:05;;;;;;;6.43;3.10;;;19.00;63.20;;;17.66;59.91;97887.38;4983753;28;20871;-72
2022/06/13 02:12:36;;;;;;;4.27;3.30;;;18.90;63.90;;;17.88;60.62;97944.59;4982253;28;20822;-72
2022/06/13 02:15:09;;;;;;;3.87;3.57;;;18.80;64.50;;;17.78;61.01;97942.63;4980619;28;20465;-76
2022/06/13 02:17:43;;;;;;;4.43;3.60;;;18.60;64.70;;;17.59;61.58;97934.06;4988562;28;20471;-72
2022/06/13 02:20:19;;;;;;;3.73;3.40;;;18.40;65.00;;;17.40;61.49;97929.00;4987472;28;20471;-71
2022/06/13 02:22:50;;;;;;;3.10;2.90;;;18.30;65.30;;;17.30;61.51;97944.50;4987821;28;20460;-77
2022/06/13 02:25:23;;;;;;;3.90;3.17;;;18.10;65.20;;;17.36;61.98;97943.44;4982476;28;20452;-75
2022/06/13 02:27:57;;;;;;;6.30;3.47;;;18.10;66.40;;;17.35;62.54;97936.34;4983559;28;20991;-72
2022/06/13 02:30:33;;;;;;;3.83;3.30;;;18.10;66.60;;;17.35;62.78;97931.72;4985549;28;20558;-71
2022/06/13 02:33:08;;;;;;;3.93;3.33;;;18.10;66.20;;;17.55;61.82;97941.13;4983709;28;20460;-75
2022/06/13 02:35:40;;;;;;;3.53;3.10;;;18.20;66.30;;;17.27;61.89;97945.84;4989625;28;20443;-72
2022/06/13 02:38:13;;;;;;;3.90;3.10;;;18.10;66.00;;;17.04;63.00;97941.56;4986356;28;20456;-70
2022/06/13 02:40:45;;;;;;;3.93;3.33;;;17.90;66.50;;;16.88;63.70;97949.56;4984103;28;20863;-71
2022/06/13 02:43:18;;;;;;;5.00;3.17;;;17.70;67.20;;;16.61;64.87;97942.25;5007311;28;20481;-75
2022/06/13 02:45:53;;;;;;;4.80;3.50;;;17.50;67.80;;;16.42;65.80;97939.84;4978541;28;20448;-74
2022/06/13 02:48:29;;;;;;;3.40;3.20;;;17.30;68.60;;;16.45;65.66;97940.41;4980679;28;20495;-73
2022/06/13 02:51:04;;;;;;;5.20;3.67;;;17.30;69.30;;;16.34;66.11;97942.19;4987699;28;20875;-81
2022/06/13 02:53:44;;;;;;;5.27;3.80;;;17.20;69.70;;;16.27;66.58;97956.00;4992475;28;20467;-71
2022/06/13 02:56:25;;;;;;;4.13;3.73;;;17.10;70.20;;;16.31;65.93;97959.91;4982942;28;20448;-71
2022/06/13 02:59:10;;;;;;;6.80;3.63;;;17.10;70.30;;;16.36;66.57;97965.41;4984461;28;20464;-73
2022/06/13 03:01:41;;;;;;;4.73;3.30;;;17.10;71.00;;;16.26;66.69;97954.38;4983626;28;20488;-74
2022/06/13 03:04:16;;;;;;;8.70;3.43;;;17.10;71.00;;;16.38;65.79;97957.78;4999038;28;20456;-71
2022/06/13 03:06:58;;;;;;;4.40;3.37;;;17.10;71.00;;;16.41;65.77;97956.47;5015502;28;20575;-72
2022/06/13 03:09:30;;;;;;;3.53;3.23;;;17.10;70.80;;;16.42;65.92;97967.09;4988622;28;21261;-78
2022/06/13 03:12:04;;;;;;;4.00;3.57;;;17.10;71.10;;;16.38;65.29;97973.34;4984329;28;20509;-72
2022/06/13 03:14:56;;;;;;;3.53;3.20;;;17.10;70.60;;;16.20;65.56;97982.66;5027281;28;20456;-74
2022/06/13 03:17:31;;;;;;;4.27;3.87;;;17.10;70.20;;;16.09;65.96;97985.22;4975176;28;20472;-71
2022/06/13 03:20:10;;;;;;;5.70;3.00;;;17.00;70.60;;;15.96;65.47;97982.88;4982639;28;20472;-73
2022/06/13 03:22:44;;;;;;;5.23;3.33;;;16.80;69.50;;;15.93;65.82;97977.94;4983721;28;20552;-72
2022/06/13 03:25:24;;;;;;;4.77;3.83;;;16.80;69.70;;;15.88;65.68;97986.00;4984163;28;20448;-74
2022/06/13 03:27:59;;;;;;;4.40;3.40;;;16.70;69.80;;;15.81;66.00;97986.19;4999918;28;20503;-70
2022/06/13 03:30:31;;;;;;;3.60;3.30;;;16.70;70.20;;;15.82;65.28;97988.66;4985049;28;20862;-74
2022/06/13 03:35:53;;;;;;;3.90;3.37;;;16.70;70.30;;;15.75;64.35;97970.84;5024368;28;20493;-76
2022/06/13 03:38:25;;;;;;;3.30;2.80;;;16.60;68.90;;;15.62;62.65;97978.31;4986757;28;20455;-73
2022/06/13 03:40:56;;;;;;;3.80;3.40;;;16.60;66.60;;;15.60;61.67;97976.91;4988071;28;21069;-77
2022/06/13 03:43:30;;;;;;;3.20;2.90;;;16.50;65.10;;;15.53;62.02;97980.59;5030344;28;20463;-72
2022/06/13 03:46:04;;;;;;;6.23;3.33;;;16.50;65.30;;;15.47;62.01;97973.44;5045640;28;20878;-78
2022/06/13 03:48:39;;;;;;;5.60;3.03;;;16.40;65.00;;;15.46;61.93;97982.69;4988151;28;21077;-71
2022/06/13 03:51:15;;;;;;;3.70;2.97;;;16.40;65.10;;;15.53;61.80;97994.22;4982773;28;20495;-72
2022/06/13 03:53:46;;;;;;;4.07;3.07;;;16.40;65.40;;;15.78;62.89;97986.69;4983703;28;20458;-73
2022/06/13 03:56:20;;;;;;;8.50;3.20;;;16.50;66.30;;;15.86;60.19;97989.81;4979130;28;20560;-72
2022/06/13 03:58:53;;;;;;;4.53;2.87;;;16.70;64.90;;;15.88;60.37;97986.81;4977074;28;20479;-74
2022/06/13 04:01:27;;;;;;;3.10;2.80;;;16.70;64.10;;;15.77;59.34;97985.84;4983178;28;20495;-73
2022/06/13 04:03:57;;;;;;;3.00;2.57;;;16.70;62.80;;;16.07;59.08;97986.56;4983712;28;20954;-79
2022/06/13 04:06:37;;;;;;;4.20;2.63;;;16.80;62.90;;;17.06;55.28;97980.31;4984316;28;20520;-75
2022/06/13 04:09:09;;;;;;;4.67;3.17;;;17.70;61.10;;;18.09;52.49;97972.09;5081167;28;21138;-72
2022/06/13 04:12:09;;;;;;;3.77;3.00;;;18.70;58.80;;;19.15;49.55;97973.75;4991657;28;20459;-72
2022/06/13 04:15:02;;;;;;;2.83;2.63;;;19.70;56.60;;;20.15;47.32;97984.34;4996380;28;20518;-74
2022/06/13 04:17:35;;;;;;;3.50;3.07;;;21.00;55.20;;;21.05;46.17;97975.44;5001725;28;20461;-70
2022/06/13 04:20:25;;;;;;;2.80;2.60;;;22.00;54.70;;;20.74;47.13;97972.88;4991806;28;20451;-72
2022/06/13 04:23:00;;;;;;;2.97;2.70;;;22.40;53.40;;;21.34;47.02;97977.41;5003684;27;20450;-75
2022/06/13 04:25:38;;;;;;;3.13;2.80;;;22.70;54.30;;;21.74;46.12;97969.94;4986795;28;20917;-74
2022/06/13 04:28:11;;;;;;;4.10;2.63;;;22.90;54.10;;;22.05;45.51;97977.03;4985681;28;20608;-72
2022/06/13 04:30:42;;;;;;;3.20;2.50;;;23.30;53.50;;;22.83;44.07;97982.44;4987971;28;20481;-75
2022/06/13 04:33:14;;;;;;;3.67;3.30;;;23.80;53.40;;;22.52;44.13;97985.63;5000304;28;20547;-72
2022/06/13 04:35:43;;;;;;;3.93;2.83;;;23.80;52.50;;;21.95;44.50;97975.22;5000369;28;20462;-73
2022/06/13 04:38:16;;;;;;;2.90;2.60;;;23.10;51.90;;;21.45;46.26;97983.66;4997988;28;20463;-76
2022/06/13 04:40:49;;;;;;;7.10;2.90;;;22.60;52.80;;;21.02;46.04;97978.75;4988409;28;20455;-78
2022/06/13 04:43:23;;;;;;;5.83;3.30;;;22.50;52.10;;;20.44;48.03;97999.34;4986212;28;20547;-75
2022/06/13 04:45:54;;;;;;;2.53;2.30;;;21.70;52.80;;;20.91;46.47;97991.72;4980431;28;20451;-75
2022/06/13 04:48:22;;;;;;;3.10;2.70;;;21.80;52.50;;;21.24;45.28;97992.06;4982541;28;20475;-78
2022/06/13 04:50:52;;;;;;;3.00;2.80;;;22.20;52.00;;;20.87;42.95;97999.72;5012332;28;20465;-78
2022/06/13 04:53:24;;;;;;;3.60;2.77;;;22.10;49.80;;;20.48;45.33;98004.00;5020242;28;20457;-79
2022/06/13 04:55:54;;;;;;;4.20;2.60;;;21.50;50.80;;;20.33;43.82;97960.19;5015430;28;20468;-85
2022/06/13 04:58:27;;;;;;;4.83;2.80;;;21.60;50.30;;;20.60;43.58;97998.19;4998503;28;20456;-81
2022/06/13 05:01:01;;;;;;;3.60;2.40;;;21.70;49.90;;;20.55;43.53;97957.06;5032481;27;20466;-77
2022/06/13 05:03:32;;;;;;;2.47;2.27;;;21.90;50.00;;;21.50;41.52;98013.81;4993234;28;20518;-78
2022/06/13 05:06:06;;;;;;;2.43;2.27;;;22.30;49.30;;;21.04;42.13;98015.00;4986009;28;20460;-84
2022/06/13 05:08:41;;;;;;;4.50;2.17;;;22.20;48.90;;;20.97;42.72;98017.22;4979507;28;20474;-77
2022/06/13 05:11:17;;;;;;;4.60;2.50;;;22.00;49.70;;;19.71;44.86;98026.91;5000308;28;20789;-80
2022/06/13 05:13:45;;;;;;;5.00;2.90;;;21.10;49.20;;;19.54;46.07;98019.81;4989170;28;20478;-81
2022/06/13 05:16:27;;;;;;;2.50;2.13;;;20.50;50.30;;;19.98;44.98;98036.78;4993893;28;20468;-81
2022/06/13 05:19:20;;;;;;;3.80;2.20;;;20.80;50.20;;;19.52;45.42;98032.13;4981033;28;20489;-80
2022/06/13 05:21:56;;;;;;;2.80;2.47;;;20.50;50.30;;;19.92;45.23;98043.34;4977744;28;20494;-80
2022/06/13 05:25:03;;;;;;;3.00;2.20;;;20.80;50.10;;;19.53;45.83;98051.03;4978402;28;21574;-79
2022/06/13 05:27:30;;;;;;;2.90;2.47;;;20.60;50.50;;;20.20;44.43;98054.81;4972540;28;20476;-79
2022/06/13 05:29:58;;;;;;;3.23;2.30;;;20.80;50.30;;;20.74;43.46;98052.47;4986942;28;20467;-80
2022/06/13 05:32:25;;;;;;;5.00;2.47;;;21.40;50.10;;;20.82;43.62;98053.84;4983184;28;20483;-77
2022/06/13 05:34:54;;;;;;;3.30;2.90;;;21.90;49.80;;;21.23;42.24;98050.88;4975627;28;20457;-79
2022/06/13 05:37:22;;;;;;;3.30;2.60;;;22.20;49.20;;;20.27;44.40;98052.63;4986797;28;20471;-78
2022/06/13 05:39:49;;;;;;;6.20;2.60;;;21.80;49.50;;;18.82;48.37;98071.66;4984449;28;20468;-79
2022/06/13 05:42:18;;;;;;;4.10;2.77;;;20.60;50.40;;;19.16;47.96;98054.00;4978886;28;20456;-79
2022/06/13 05:44:45;;;;;;;3.17;2.80;;;20.30;51.20;;;18.82;48.99;98060.72;4979508;28;20473;-81
2022/06/13 05:47:19;;;;;;;5.13;2.77;;;20.20;51.40;;;20.08;45.91;98053.19;4974875;28;20514;-80
2022/06/13 05:49:47;;;;;;;3.20;2.90;;;20.90;51.10;;;20.88;44.33;98052.69;5005763;28;20509;-79
2022/06/13 05:52:14;;;;;;;6.10;2.60;;;21.70;50.60;;;21.55;42.34;98054.19;4982004;28;20465;-79
2022/06/13 05:54:42;;;;;;;5.47;2.60;;;22.60;49.60;;;21.81;41.21;98040.28;4986093;28;20457;-77
2022/06/13 05:57:11;;;;;;;2.87;2.30;;;23.20;48.90;;;22.29;40.78;98065.09;4977625;28;20972;-77
2022/06/13 05:59:40;;;;;;;3.63;3.13;;;23.30;48.70;;;22.46;40.19;98061.06;4974750;28;20550;-76
2022/06/13 06:02:09;;;;;;;2.57;2.10;;;23.50;48.60;;;22.00;40.71;98063.19;4976321;28;20476;-77
2022/06/13 06:04:36;;;;;;;4.60;2.50;;;23.40;48.10;;;22.01;40.48;98059.31;5004955;28;20469;-79
2022/06/13 06:07:05;;;;;;;3.73;2.97;;;23.20;47.90;;;22.10;41.02;98064.19;4982958;28;20531;-78
2022/06/13 06:09:32;;;;;;;2.83;2.53;;;23.40;48.50;;;22.56;39.27;98072.00;4981876;28;20542;-74
2022/06/13 06:11:59;;;;;;;3.83;2.43;;;24.00;47.50;;;21.81;40.75;98074.06;4986585;28;20458;-76
2022/06/13 06:14:26;;;;;;;3.23;2.17;;;23.20;47.70;;;21.87;40.68;98069.34;4995737;28;21004;-75
2022/06/13 06:16:55;;;;;;;3.97;2.03;;;23.10;47.80;;;22.36;39.45;98065.56;4989784;28;20532;-88
2022/06/13 06:19:22;;;;;;;3.83;2.40;;;23.70;47.60;;;23.15;38.34;98074.53;4978225;28;20453;-76
2022/06/13 06:21:49;;;;;;;6.73;2.77;;;24.40;47.10;;;23.32;37.83;98081.50;4967388;28;20447;-76
2022/06/13 06:24:17;;;;;;;4.10;2.10;;;24.80;46.80;;;22.39;38.85;98077.13;4974399;28;20525;-77
2022/06/13 06:26:44;;;;;;;2.50;2.07;;;24.00;46.90;;;22.06;39.83;98083.22;5003822;28;20468;-75
2022/06/13 06:29:13;;;;;;;3.33;2.63;;;23.60;46.90;;;21.26;41.48;98082.41;4988520;28;20470;-81
2022/06/13 06:31:41;;;;;;;5.53;2.50;;;23.00;47.00;;;19.87;45.16;98089.94;4969628;28;20456;-78
2022/06/13 06:34:10;;;;;;;5.10;2.20;;;21.60;48.10;;;19.49;46.29;98090.22;4975254;28;20464;-81
2022/06/13 06:36:37;;;;;;;7.43;2.60;;;20.80;49.30;;;19.00;47.16;98105.16;4976281;28;20487;-78
2022/06/13 06:39:05;;;;;;;5.70;2.90;;;20.20;49.90;;;18.68;47.96;98099.53;5000014;28;20473;-80
2022/06/13 06:41:32;;;;;;;4.90;2.73;;;19.70;50.20;;;18.77;48.19;98101.75;4988190;28;20533;-80
2022/06/13 06:43:59;;;;;;;4.67;2.57;;;19.70;50.70;;;18.66;48.44;98100.91;4985981;28;20479;-79
2022/06/13 06:46:26;;;;;;;7.07;2.93;;;19.50;50.80;;;18.66;48.49;98104.44;4977801;28;20465;-80
2022/06/13 06:48:53;;;;;;;2.50;2.23;;;19.50;50.80;;;18.41;49.34;98092.28;4983358;28;20533;-82
2022/06/13 06:51:22;;;;;;;5.23;2.30;;;19.30;51.00;;;18.50;48.63;98098.09;4981716;28;20468;-83
2022/06/13 07:02:05;;;;;;;4.87;2.57;;;19.70;51.20;;;18.75;48.53;98103.94;4977868;28;20597;-79
2022/06/13 07:04:32;;;;;;;4.37;2.40;;;19.70;51.20;;;18.88;48.75;98103.47;4982034;28;20565;-78
2022/06/13 07:07:01;;;;;;;4.57;2.30;;;19.70;51.60;;;19.01;48.33;98101.31;4981601;28;20871;-79
2022/06/13 07:09:28;;;;;;;2.40;2.20;;;19.80;51.40;;;18.93;47.60;98111.69;4993808;28;20484;-74
2022/06/13 07:11:56;;;;;;;4.03;2.50;;;19.90;50.90;;;18.95;48.00;98114.97;4999910;28;20465;-78
2022/06/13 07:14:26;;;;;;;4.03;1.90;;;19.80;51.20;;;18.97;47.47;98112.78;5004411;28;20956;-75
2022/06/13 07:16:54;;;;;;;3.27;2.40;;;19.80;50.90;;;19.20;47.56;98105.22;4985022;28;20463;-78
2022/06/13 07:19:22;;;;;;;4.00;2.57;;;20.00;51.10;;;19.37;47.52;98104.97;4993895;28;20548;-75
2022/06/13 07:21:49;;;;;;;3.67;2.57;;;20.20;51.40;;;19.50;47.30;98102.81;5009676;28;20460;-78
2022/06/13 07:24:18;;;;;;;5.20;2.80;;;20.30;51.20;;;19.53;47.15;98107.75;4980408;28;20468;-71
2022/06/13 07:26:45;;;;;;;2.97;2.23;;;20.40;51.20;;;19.68;47.40;98109.69;4984775;28;20487;-72
2022/06/13 07:29:13;;;;;;;5.60;2.83;;;20.50;51.50;;;19.74;47.55;98103.09;4990747;28;20475;-74
2022/06/13 07:31:43;;;;;;;7.30;3.13;;;20.60;51.50;;;19.44;46.56;98118.41;4974709;28;20896;-75
2022/06/13 07:34:16;;;;;;;5.63;2.70;;;20.30;50.30;;;19.39;46.67;98113.75;4980147;28;20513;-72
2022/06/13 07:36:44;;;;;;;4.20;2.53;;;20.20;50.40;;;19.25;47.00;98107.97;4986322;28;20511;-73
2022/06/13 07:39:12;;;;;;;5.33;2.57;;;20.10;50.80;;;19.30;47.17;98125.50;4985325;28;20467;-72
2022/06/13 07:41:41;;;;;;;2.97;2.53;;;20.10;50.80;;;19.29;47.71;98118.38;4982354;28;20468;-72
2022/06/13 07:44:12;;;;;;;7.10;2.33;;;20.10;51.30;;;19.47;47.68;98114.31;4978086;28;20475;-73
2022/06/13 07:46:39;;;;;;;6.57;2.30;;;20.30;51.50;;;19.75;47.07;98112.16;4978405;28;20464;-72
2022/06/13 07:49:06;;;;;;;5.50;2.50;;;20.50;51.50;;;20.03;45.36;98119.03;4980394;28;20479;-74
2022/06/13 07:51:34;;;;;;;5.40;2.37;;;20.80;50.50;;;19.78;45.38;98109.66;4982655;28;20456;-73
2022/06/13 07:54:01;;;;;;;7.23;2.80;;;20.70;49.90;;;19.63;45.54;98118.72;4987642;28;20955;-73
2022/06/13 07:56:31;;;;;;;5.30;2.73;;;20.50;49.90;;;19.66;45.28;98114.63;4983768;28;20478;-73
2022/06/13 07:59:00;;;;;;;3.00;2.57;;;20.50;49.70;;;19.67;45.50;98116.25;4982552;28;20476;-73
2022/06/13 08:01:29;;;;;;;5.03;2.57;;;20.50;49.80;;;19.80;45.53;98121.22;4982813;28;20476;-74
2022/06/13 08:03:57;;;;;;;4.00;2.67;;;20.60;50.20;;;19.81;45.13;98120.09;4982625;28;20460;-75
2022/06/13 08:06:25;;;;;;;4.03;2.20;;;20.60;49.80;;;19.77;45.67;98113.50;5011752;28;20460;-74
2022/06/13 08:08:53;;;;;;;7.23;2.90;;;20.60;49.90;;;19.97;45.80;98128.38;4982534;28;20468;-74
2022/06/13 08:11:29;;;;;;;3.87;2.33;;;20.70;50.50;;;20.02;45.41;98122.88;4979988;28;20468;-73
2022/06/13 08:13:56;;;;;;;6.33;2.50;;;20.80;50.20;;;20.16;45.46;98116.81;4981446;28;20467;-72
2022/06/13 08:16:25;;;;;;;3.23;2.43;;;20.80;50.40;;;20.39;44.77;98116.22;4984495;28;20586;-73
2022/06/13 08:18:52;;;;;;;8.83;2.80;;;21.10;50.20;;;20.65;44.13;98112.63;4981797;28;20480;-75
2022/06/13 08:21:21;;;;;;;2.77;2.57;;;21.30;49.90;;;20.67;43.86;98113.97;4979869;28;20541;-74
2022/06/13 08:23:48;;;;;;;4.10;2.47;;;21.40;49.70;;;20.61;43.86;98120.56;4984951;28;20472;-77
2022/06/13 08:26:16;;;;;;;5.00;2.37;;;21.30;49.60;;;20.78;43.33;98113.94;5009504;27;20491;-80
2022/06/13 08:28:43;;;;;;;5.13;2.43;;;21.50;49.40;;;20.89;42.01;98125.72;4979316;28;20544;-80
2022/06/13 08:31:13;;;;;;;3.80;2.20;;;21.60;48.70;;;20.93;41.98;98126.81;4975449;28;20468;-80
2022/06/13 08:33:42;;;;;;;6.63;2.60;;;21.60;48.40;;;20.67;42.33;98124.13;4980753;28;20511;-76
2022/06/13 08:36:11;;;;;;;4.23;2.50;;;21.60;48.40;;;21.14;41.62;98133.03;4979209;28;21195;-77
2022/06/13 08:38:39;;;;;;;4.97;2.20;;;21.80;48.40;;;21.05;40.54;98135.53;4995705;28;20896;-76
2022/06/13 08:41:19;;;;;;;7.33;2.63;;;21.80;47.50;;;21.35;40.33;98133.72;4984260;28;20553;-75
2022/06/13 08:44:11;;;;;;;4.10;2.37;;;21.90;47.60;;;21.39;41.04;98139.50;4986723;28;20902;-76
2022/06/13 08:46:54;;;;;;;3.80;2.37;;;22.10;47.90;;;21.23;41.27;98101.13;4979363;28;20465;-76
2022/06/13 08:49:36;;;;;;;8.53;3.43;;;22.20;48.20;;;21.42;41.67;98154.59;4987047;28;20684;-77
2022/06/13 08:52:19;;;;;;;3.33;2.20;;;22.20;48.60;;;21.34;41.81;98139.53;4965535;28;20466;-76
2022/06/13 08:54:52;;;;;;;5.30;2.93;;;22.10;48.40;;;21.13;42.23;98155.28;4986982;28;20580;-76
2022/06/13 08:57:21;;;;;;;4.73;2.50;;;21.90;48.50;;;21.12;42.78;98151.72;4988199;28;21569;-76
2022/06/13 08:59:55;;;;;;;8.70;2.93;;;21.90;48.90;;;21.17;42.46;98154.44;4983294;28;20463;-78
2022/06/13 09:02:30;;;;;;;4.20;2.83;;;21.90;48.80;;;21.41;42.64;98158.44;4976532;28;22153;-77
2022/06/13 09:05:10;;;;;;;6.93;2.80;;;22.00;49.30;;;21.69;42.31;98161.63;4976012;28;20490;-78
2022/06/13 09:07:43;;;;;;;5.70;2.60;;;22.40;49.30;;;21.14;43.28;98160.47;4984095;28;20969;-78
2022/06/13 09:10:19;;;;;;;5.17;2.90;;;22.10;49.10;;;20.69;43.66;98163.09;5010988;28;20481;-78
2022/06/13 09:12:55;;;;;;;6.10;2.60;;;21.60;49.10;;;20.77;44.10;98161.69;4983646;28;20540;-76
2022/06/13 09:15:28;;;;;;;10.03;3.17;;;21.50;49.40;;;21.09;43.42;98124.81;4975897;28;20950;-76
2022/06/13 09:18:03;;;;;;;3.60;2.40;;;21.80;49.60;;;21.27;41.79;98170.06;4979735;28;20989;-77
2022/06/13 09:20:40;;;;;;;6.20;2.80;;;22.00;48.40;;;21.26;41.61;98156.59;4973878;28;20985;-77
2022/06/13 09:23:19;;;;;;;6.73;3.00;;;22.00;48.40;;;21.38;41.75;98162.59;4982944;28;20986;-76
2022/06/13 09:25:53;;;;;;;6.00;2.40;;;22.10;48.40;;;21.50;39.40;98174.06;4978343;28;20443;-77
2022/06/13 09:28:25;;;;;;;4.00;1.93;;;22.20;47.20;;;21.63;39.98;98150.59;4981360;28;20463;-78
2022/06/13 09:30:58;;;;;;;5.43;3.20;;;22.20;47.50;;;21.50;40.34;98123.75;4984580;28;20453;-77
2022/06/13 09:33:32;;;;;;;4.33;2.50;;;22.50;47.80;;;21.62;40.66;98167.41;4979505;28;20827;-76
2022/06/13 09:36:06;;;;;;;5.73;2.40;;;22.40;47.70;;;21.13;41.07;98164.34;4972854;28;20506;-75
2022/06/13 09:38:40;;;;;;;5.20;2.80;;;22.00;47.60;;;21.44;41.03;98174.38;4978895;28;20984;-75
2022/06/13 09:41:30;;;;;;;6.00;2.83;;;22.00;47.70;;;21.29;40.85;98165.09;5025921;28;20474;-76
2022/06/13 09:44:14;;;;;;;5.30;2.57;;;22.10;47.50;;;20.73;41.38;98183.41;4995396;28;20500;-74
2022/06/13 09:46:52;;;;;;;8.53;2.50;;;21.60;47.30;;;20.61;41.12;98169.13;5015708;28;20460;-78
2022/06/13 09:49:29;;;;;;;4.87;2.27;;;21.40;47.10;;;20.67;40.90;98162.56;4982653;28;20509;-75
2022/06/13 09:52:05;;;;;;;4.77;2.53;;;21.40;47.10;;;20.94;40.18;98173.19;4976139;28;20489;-77
2022/06/13 09:54:41;;;;;;;4.17;2.50;;;21.60;46.90;;;21.55;39.46;98158.63;4977048;28;20465;-78
2022/06/13 09:57:21;;;;;;;4.70;2.33;;;22.00;46.90;;;21.64;38.54;98167.94;4972102;28;20949;-76
2022/06/13 10:00:08;;;;;;;4.03;2.37;;;22.30;46.20;;;21.30;37.64;98172.25;4978475;28;20475;-77
2022/06/13 10:02:48;;;;;;;3.07;2.27;;;22.10;44.80;;;21.06;37.52;98159.16;4977587;28;20470;-77
2022/06/13 10:05:34;;;;;;;4.80;2.73;;;21.90;44.70;;;21.33;37.13;98174.41;4978910;28;20436;-75
2022/06/13 10:08:28;;;;;;;3.90;2.30;;;22.00;44.40;;;21.20;36.42;98166.78;4979689;28;20512;-77
2022/06/13 10:11:04;;;;;;;7.77;2.17;;;22.00;44.00;;;21.02;37.26;98173.75;4977586;28;20551;-77
2022/06/13 10:13:48;;;;;;;4.37;2.33;;;21.80;44.60;;;21.21;37.37;98166.50;4974747;28;20474;-78
2022/06/13 10:16:27;;;;;;;3.50;2.33;;;21.80;44.80;;;21.06;36.26;98177.56;4977217;28;20484;-78
2022/06/13 10:19:10;;;;;;;2.97;2.10;;;21.80;43.80;;;21.31;36.28;98181.31;4975480;28;20468;-78
2022/06/13 10:21:43;;;;;;;4.70;2.17;;;22.00;44.00;;;21.00;36.48;98175.91;4977566;28;20473;-77
2022/06/13 10:24:25;;;;;;;4.30;2.40;;;21.80;43.70;;;21.14;36.83;98171.47;4986964;28;20453;-77
2022/06/13 10:27:03;;;;;;;1.90;1.57;;;21.90;44.10;;;21.32;35.44;98160.97;4987645;28;20477;-76
2022/06/13 10:30:13;;;;;;;3.40;2.10;;;22.00;44.20;;;21.26;34.79;98168.41;4979280;28;20576;-78
2022/06/13 10:32:58;;;;;;;3.43;2.17;;;22.00;42.80;;;21.26;35.86;98175.81;4953293;28;20460;-76
2022/06/13 10:35:40;;;;;;;7.27;2.10;;;21.90;43.50;;;21.67;35.37;98163.81;4978056;28;20487;-77
2022/06/13 10:38:30;;;;;;;2.27;1.90;;;22.20;43.70;;;21.74;35.38;98162.38;4992913;28;20447;-76
2022/06/13 10:40:59;;;;;;;5.83;2.30;;;22.50;43.60;;;21.88;35.24;98172.75;5004790;28;20470;-77
2022/06/13 10:43:30;;;;;;;6.73;2.20;;;22.50;43.80;;;22.21;34.06;98170.25;4996542;28;21517;-75
2022/06/13 10:45:57;;;;;;;2.57;1.90;;;22.80;43.00;;;21.82;33.47;98127.94;4979802;28;20500;-76
2022/06/13 10:48:30;;;;;;;4.70;1.77;;;22.80;42.20;;;22.11;33.74;98162.13;4981257;28;20462;-75
2022/06/13 10:51:00;;;;;;;3.63;1.80;;;22.70;42.80;;;22.56;32.44;98176.59;4990731;28;20496;-76
2022/06/13 10:53:41;;;;;;;7.77;2.40;;;23.10;42.00;;;22.18;34.74;98165.34;5003059;28;20584;-76
2022/06/13 10:56:14;;;;;;;7.60;2.57;;;23.00;43.20;;;22.01;35.60;98177.59;4992579;28;20505;-76
2022/06/13 10:58:48;;;;;;;2.70;1.93;;;22.80;43.80;;;21.64;35.16;98190.72;4985624;28;20518;-76
2022/06/13 11:01:19;;;;;;;4.90;1.87;;;22.50;43.00;;;21.63;33.75;98193.78;4992739;28;20466;-76